Terminal Aerodrome Forecast
Issued by NWS

Home | Current Version | Previous Version | Graphics & Text | Print | Product List | Glossary On
Versions: 1 2 3 4 5 6 7 8 9 10 11 12 13 14 15 16 17 18 19 20 21 22 23 24 25 26
158
FTUS43 KGRB 121157 AAA
TAFCWA
TAF AMD
KCWA 121157Z 1212/1312 31014G22KT P6SM BKN025
     FM121500 32010G17KT P6SM SCT035
     FM122300 29004KT P6SM SCT040 BKN250
     FM130600 13003KT P6SM SCT050 BKN100
     FM130900 12006KT 1SM -SN BR OVC006=

USA.gov is the U.S. government's official web portal to all federal, state and local government web resources and services.